Time;durP1;ratioP1;P1;durP2;ratioP2;P2;SDS_P1;SDS_P2;PMS_P1;PMS_P2;Temp;Humidity;BMP_temperature;BMP_pressure;BME280_temperature;BME280_humidity;BME280_pressure;Samples;Min_cycle;Max_cycle;Signal;HPM_P1;HPM_P2
2021/05/09 00:01:21;;;;;;;;;;;15.30;99.90;;;;;;5093235;28;19908;-77
2021/05/09 00:03:47;;;;;;;;;;;15.30;99.90;;;;;;5092403;28;20368;-77
2021/05/09 00:06:13;;;;;;;;;;;15.30;99.90;;;;;;5093492;28;20368;-76
2021/05/09 00:08:38;;;;;;;;;;;15.30;99.90;;;;;;5091902;28;19955;-76
2021/05/09 00:11:04;;;;;;;;;;;15.30;99.90;;;;;;5091622;28;19908;-76
2021/05/09 00:13:29;;;;;;;;;;;15.30;99.90;;;;;;5091317;28;20380;-76
2021/05/09 00:15:55;;;;;;;;;;;15.30;99.90;;;;;;5092856;28;20015;-76
2021/05/09 00:18:20;;;;;;;;;;;15.30;99.90;;;;;;5092313;28;19908;-76
2021/05/09 00:20:46;;;;;;;;;;;15.30;99.90;;;;;;5092763;28;19915;-76
2021/05/09 00:23:12;;;;;;;;;;;15.20;99.90;;;;;;5092050;28;19908;-78
2021/05/09 00:25:37;;;;;;;;;;;15.20;99.90;;;;;;5092011;28;19994;-78
2021/05/09 00:28:03;;;;;;;;;;;15.20;99.90;;;;;;5092179;28;19914;-77
2021/05/09 00:30:28;;;;;;;;;;;15.10;99.90;;;;;;5091583;28;20290;-78
2021/05/09 00:32:54;;;;;;;;;;;15.00;99.90;;;;;;5092870;28;19942;-77
2021/05/09 00:35:19;;;;;;;;;;;15.00;99.90;;;;;;5093386;28;19908;-77
2021/05/09 00:37:45;;;;;;;;;;;15.00;99.90;;;;;;5093684;28;19907;-77
2021/05/09 00:40:11;;;;;;;;;;;15.00;99.90;;;;;;5076345;28;20431;-77
2021/05/09 00:42:36;;;;;;;;;;;14.90;99.90;;;;;;5093642;28;19935;-77
2021/05/09 00:45:03;;;;;;;;;;;14.90;99.90;;;;;;5097336;28;19908;-77
2021/05/09 00:47:28;;;;;;;;;;;14.90;99.90;;;;;;5097577;28;19908;-77
2021/05/09 00:49:54;;;;;;;;;;;14.80;99.90;;;;;;5095857;28;20039;-77
2021/05/09 00:52:22;;;;;;;;;;;14.80;99.90;;;;;;5095305;28;19918;-78
2021/05/09 00:54:58;;;;;;;;;;;14.80;99.90;;;;;;5099634;28;19908;-78
2021/05/09 00:57:24;;;;;;;;;;;14.70;99.90;;;;;;5108974;28;19908;-77
2021/05/09 00:59:50;;;;;;;;;;;14.70;99.90;;;;;;5106790;28;19973;-77
2021/05/09 01:02:16;;;;;;;;;;;14.60;99.90;;;;;;5108514;28;19915;-77
2021/05/09 01:04:43;;;;;;;;;;;14.70;99.90;;;;;;5108389;28;20422;-77
2021/05/09 01:07:08;;;;;;;;;;;14.60;99.90;;;;;;5109476;28;19908;-77
2021/05/09 01:09:34;;;;;;;;;;;14.60;99.90;;;;;;5108895;28;19958;-77
2021/05/09 01:11:59;;;;;;;;;;;14.60;99.90;;;;;;5109805;28;20327;-77
2021/05/09 01:14:25;;;;;;;;;;;14.60;99.90;;;;;;5112883;28;19968;-77
2021/05/09 01:16:51;;;;;;;;;;;14.60;99.90;;;;;;5106042;28;20006;-79
2021/05/09 01:19:17;;;;;;;;;;;14.60;99.90;;;;;;5087724;28;19998;-78
2021/05/09 01:21:42;;;;;;;;;;;14.50;99.90;;;;;;5100553;28;19958;-76
2021/05/09 01:24:09;;;;;;;;;;;14.50;99.90;;;;;;5099533;28;19908;-76
2021/05/09 01:26:34;;;;;;;;;;;14.50;99.90;;;;;;5100026;28;19994;-78
2021/05/09 01:29:00;;;;;;;;;;;14.50;99.90;;;;;;5096382;28;19962;-78
2021/05/09 01:31:26;;;;;;;;;;;14.40;99.90;;;;;;5098054;28;19908;-77
2021/05/09 01:33:51;;;;;;;;;;;14.40;99.90;;;;;;5098107;28;19912;-77
2021/05/09 01:36:17;;;;;;;;;;;14.40;99.90;;;;;;5097554;28;20005;-78
2021/05/09 01:38:42;;;;;;;;;;;14.30;99.90;;;;;;5096700;28;19908;-78
2021/05/09 01:41:08;;;;;;;;;;;14.30;99.90;;;;;;5096036;28;19908;-77
2021/05/09 01:43:37;;;;;;;;;;;14.30;99.90;;;;;;5096210;28;20291;-78
2021/05/09 01:46:03;;;;;;;;;;;14.30;99.90;;;;;;5095972;28;19908;-77
2021/05/09 01:48:28;;;;;;;;;;;14.30;99.90;;;;;;5096448;28;20002;-77
2021/05/09 01:50:54;;;;;;;;;;;14.30;99.90;;;;;;5095562;28;19930;-78
2021/05/09 01:53:19;;;;;;;;;;;14.20;99.90;;;;;;5096712;28;19912;-78
2021/05/09 01:55:45;;;;;;;;;;;14.20;99.90;;;;;;5094005;28;19912;-78
2021/05/09 01:58:10;;;;;;;;;;;14.10;99.90;;;;;;5094366;28;20379;-76
2021/05/09 02:00:36;;;;;;;;;;;14.10;99.90;;;;;;5095772;28;19954;-76
2021/05/09 02:03:01;;;;;;;;;;;14.10;99.90;;;;;;5095987;28;19929;-79
2021/05/09 02:05:27;;;;;;;;;;;14.00;99.90;;;;;;5095514;28;19908;-77
2021/05/09 02:07:52;;;;;;;;;;;14.00;99.90;;;;;;5093880;28;19915;-77
2021/05/09 02:10:18;;;;;;;;;;;13.90;99.90;;;;;;5095242;28;20292;-77
2021/05/09 02:12:43;;;;;;;;;;;14.00;99.90;;;;;;5093830;28;19911;-78
2021/05/09 02:15:09;;;;;;;;;;;13.90;99.90;;;;;;5093418;28;19908;-77
2021/05/09 02:17:35;;;;;;;;;;;13.80;99.90;;;;;;5095794;28;19912;-77
2021/05/09 02:20:03;;;;;;;;;;;13.80;99.90;;;;;;5095012;28;19952;-77
2021/05/09 02:22:29;;;;;;;;;;;13.80;99.90;;;;;;5093791;28;19912;-78
2021/05/09 02:24:54;;;;;;;;;;;13.80;99.90;;;;;;5093974;28;19912;-77
2021/05/09 02:27:20;;;;;;;;;;;13.70;99.90;;;;;;5093926;28;19908;-77
2021/05/09 02:29:45;;;;;;;;;;;13.70;99.90;;;;;;5095438;28;19916;-78
2021/05/09 02:32:11;;;;;;;;;;;13.70;99.90;;;;;;5095033;28;19916;-77
2021/05/09 02:34:36;;;;;;;;;;;13.70;99.90;;;;;;5094904;28;20272;-77
2021/05/09 02:37:03;;;;;;;;;;;13.70;99.90;;;;;;5093203;28;19908;-77
2021/05/09 02:39:28;;;;;;;;;;;13.70;99.90;;;;;;5093412;28;19915;-78
2021/05/09 02:41:54;;;;;;;;;;;13.70;99.90;;;;;;5094473;28;20323;-78
2021/05/09 02:44:19;;;;;;;;;;;13.80;99.90;;;;;;5094925;28;19908;-77
2021/05/09 02:46:45;;;;;;;;;;;13.80;99.90;;;;;;5093437;28;19918;-78
2021/05/09 02:49:10;;;;;;;;;;;13.70;99.90;;;;;;5094712;28;19951;-77
2021/05/09 02:51:36;;;;;;;;;;;13.80;99.90;;;;;;5092868;28;20011;-78
2021/05/09 02:54:01;;;;;;;;;;;13.70;99.90;;;;;;5094828;28;19915;-77
2021/05/09 02:56:27;;;;;;;;;;;13.70;99.90;;;;;;5093109;28;19908;-78
2021/05/09 02:58:52;;;;;;;;;;;13.70;99.90;;;;;;5095225;28;20276;-77
2021/05/09 03:01:18;;;;;;;;;;;13.80;99.90;;;;;;5093646;28;20271;-78
2021/05/09 03:03:43;;;;;;;;;;;13.80;99.90;;;;;;5093526;28;19908;-77
2021/05/09 03:06:09;;;;;;;;;;;13.80;99.90;;;;;;5093189;28;20310;-77
2021/05/09 03:08:34;;;;;;;;;;;13.80;99.90;;;;;;5094133;28;19948;-77
2021/05/09 03:11:00;;;;;;;;;;;13.80;99.90;;;;;;5092575;28;19930;-76
2021/05/09 03:13:26;;;;;;;;;;;13.80;99.90;;;;;;5094191;28;20396;-78
2021/05/09 03:15:52;;;;;;;;;;;13.70;99.90;;;;;;5092838;28;19915;-78
2021/05/09 03:18:17;;;;;;;;;;;13.70;99.90;;;;;;5092991;28;19912;-75
2021/05/09 03:20:43;;;;;;;;;;;13.70;99.90;;;;;;5094073;28;20006;-77
2021/05/09 03:23:08;;;;;;;;;;;13.60;99.90;;;;;;5094587;28;19915;-77
2021/05/09 03:25:34;;;;;;;;;;;13.60;99.90;;;;;;5092943;28;20498;-77
2021/05/09 03:27:59;;;;;;;;;;;13.60;99.90;;;;;;5094012;28;19908;-77
2021/05/09 03:30:25;;;;;;;;;;;13.60;99.90;;;;;;5093691;28;19916;-78
2021/05/09 03:32:50;;;;;;;;;;;13.60;99.90;;;;;;5093973;28;19912;-78
2021/05/09 03:35:16;;;;;;;;;;;13.60;99.90;;;;;;5092988;28;19912;-78
2021/05/09 03:37:41;;;;;;;;;;;13.60;99.90;;;;;;5094301;28;19951;-77
2021/05/09 03:40:08;;;;;;;;;;;13.60;99.90;;;;;;5092542;28;19930;-76
2021/05/09 03:42:34;;;;;;;;;;;13.60;99.90;;;;;;5092883;28;20380;-77
2021/05/09 03:45:00;;;;;;;;;;;13.60;99.90;;;;;;5093315;28;19943;-77
2021/05/09 03:47:28;;;;;;;;;;;13.60;99.90;;;;;;5092613;28;19911;-77
2021/05/09 03:49:55;;;;;;;;;;;13.60;99.90;;;;;;5091914;28;19908;-76
2021/05/09 03:52:20;;;;;;;;;;;13.60;99.90;;;;;;5093876;28;19912;-77
2021/05/09 03:54:46;;;;;;;;;;;13.60;99.90;;;;;;5092575;28;19908;-78
2021/05/09 03:57:11;;;;;;;;;;;13.60;99.90;;;;;;5094322;28;19915;-76
2021/05/09 03:59:37;;;;;;;;;;;13.60;99.90;;;;;;5092603;28;19952;-77
2021/05/09 04:02:03;;;;;;;;;;;13.60;99.90;;;;;;5092663;28;19908;-77
2021/05/09 04:04:28;;;;;;;;;;;13.60;99.90;;;;;;5092310;28;20375;-77
2021/05/09 04:06:54;;;;;;;;;;;13.60;99.90;;;;;;5093250;28;19908;-77
2021/05/09 04:09:19;;;;;;;;;;;13.60;99.90;;;;;;5092297;28;19939;-78
2021/05/09 04:11:44;;;;;;;;;;;13.60;99.90;;;;;;5096127;28;19919;-77
2021/05/09 04:14:10;;;;;;;;;;;13.60;99.90;;;;;;5111374;28;20355;-76
2021/05/09 04:16:35;;;;;;;;;;;13.60;99.90;;;;;;5112550;28;19944;-77
2021/05/09 04:19:01;;;;;;;;;;;13.60;99.90;;;;;;5119133;28;20037;-77
2021/05/09 04:21:26;;;;;;;;;;;13.70;99.90;;;;;;5119273;28;20010;-76
2021/05/09 04:23:52;;;;;;;;;;;13.70;99.90;;;;;;5121715;28;19934;-76
2021/05/09 04:26:17;;;;;;;;;;;13.70;99.90;;;;;;5119645;28;19912;-77
2021/05/09 04:28:43;;;;;;;;;;;13.80;99.90;;;;;;5119038;28;19920;-74
2021/05/09 04:31:08;;;;;;;;;;;13.90;99.90;;;;;;5102857;28;19971;-76
2021/05/09 04:33:34;;;;;;;;;;;13.90;99.90;;;;;;5100938;28;19947;-76
2021/05/09 04:35:59;;;;;;;;;;;13.90;99.90;;;;;;5099176;28;19908;-76
2021/05/09 04:38:25;;;;;;;;;;;14.00;99.90;;;;;;5099619;28;20421;-76
2021/05/09 04:40:50;;;;;;;;;;;14.00;99.90;;;;;;5101074;28;19933;-75
2021/05/09 04:43:17;;;;;;;;;;;14.10;99.90;;;;;;5099567;28;19908;-76
2021/05/09 04:45:47;;;;;;;;;;;14.20;99.90;;;;;;5097133;28;19912;-77
2021/05/09 04:48:12;;;;;;;;;;;14.30;99.90;;;;;;5097385;28;20010;-78
2021/05/09 04:50:38;;;;;;;;;;;14.30;99.90;;;;;;5096491;28;20368;-76
2021/05/09 04:53:03;;;;;;;;;;;14.30;99.90;;;;;;5096590;28;19962;-77
2021/05/09 04:55:29;;;;;;;;;;;14.30;99.90;;;;;;5096068;28;19908;-76
2021/05/09 04:57:54;;;;;;;;;;;14.40;99.90;;;;;;5096366;28;19923;-76
2021/05/09 05:00:20;;;;;;;;;;;14.40;99.90;;;;;;5096960;28;20268;-75
2021/05/09 05:02:46;;;;;;;;;;;14.40;99.90;;;;;;5096406;28;19992;-76
2021/05/09 05:05:13;;;;;;;;;;;14.50;99.90;;;;;;5095694;28;19911;-77
2021/05/09 05:07:39;;;;;;;;;;;14.50;99.90;;;;;;5095441;28;20375;-76
2021/05/09 05:10:05;;;;;;;;;;;14.60;99.90;;;;;;5095076;28;19912;-76
2021/05/09 05:12:30;;;;;;;;;;;14.60;99.90;;;;;;5096070;28;19973;-77
2021/05/09 05:14:56;;;;;;;;;;;14.70;99.90;;;;;;5095058;28;19908;-76
2021/05/09 05:17:21;;;;;;;;;;;14.80;99.90;;;;;;5094953;28;19908;-76
2021/05/09 05:19:47;;;;;;;;;;;14.70;99.90;;;;;;5096284;28;20002;-76
2021/05/09 05:22:13;;;;;;;;;;;14.70;99.90;;;;;;5096356;28;20214;-76
2021/05/09 05:24:39;;;;;;;;;;;14.80;99.90;;;;;;5096504;28;19915;-75
2021/05/09 05:27:04;;;;;;;;;;;14.70;99.90;;;;;;5094397;28;19920;-75
2021/05/09 05:29:30;;;;;;;;;;;14.80;99.90;;;;;;5095753;28;20246;-76
2021/05/09 05:31:55;;;;;;;;;;;14.90;99.90;;;;;;5094914;28;20360;-76
2021/05/09 05:34:21;;;;;;;;;;;15.00;99.90;;;;;;5094917;28;19915;-76
2021/05/09 05:36:46;;;;;;;;;;;15.20;99.90;;;;;;5091324;28;20395;-76
2021/05/09 05:39:12;;;;;;;;;;;15.20;99.90;;;;;;5096361;28;19908;-76
2021/05/09 05:41:38;;;;;;;;;;;15.30;99.90;;;;;;5094467;28;19908;-76
2021/05/09 05:44:04;;;;;;;;;;;15.30;99.90;;;;;;5094991;28;19904;-76
2021/05/09 05:46:30;;;;;;;;;;;15.40;99.90;;;;;;5094897;28;19908;-77
2021/05/09 05:48:56;;;;;;;;;;;15.50;99.90;;;;;;5095576;28;19915;-77
2021/05/09 05:51:21;;;;;;;;;;;15.60;99.90;;;;;;5095504;28;19908;-76
2021/05/09 05:53:47;;;;;;;;;;;15.60;99.90;;;;;;5095785;28;19912;-76
2021/05/09 05:56:13;;;;;;;;;;;15.80;99.90;;;;;;5095951;28;19969;-76
2021/05/09 05:58:38;;;;;;;;;;;15.90;99.90;;;;;;5094303;28;19908;-75
2021/05/09 06:01:04;;;;;;;;;;;16.10;99.90;;;;;;5093625;28;19943;-75
2021/05/09 06:03:29;;;;;;;;;;;16.30;99.90;;;;;;5095776;28;19907;-75
2021/05/09 06:05:57;;;;;;;;;;;16.40;99.90;;;;;;5094416;28;19922;-76
2021/05/09 06:08:23;;;;;;;;;;;16.40;99.90;;;;;;5095341;28;19915;-76
2021/05/09 06:10:48;;;;;;;;;;;16.40;99.90;;;;;;5094220;28;20224;-76
2021/05/09 06:13:14;;;;;;;;;;;16.50;99.90;;;;;;5092862;28;20068;-76
2021/05/09 06:15:40;;;;;;;;;;;16.40;99.90;;;;;;5094906;28;20352;-76
2021/05/09 06:18:05;;;;;;;;;;;16.40;99.90;;;;;;5094230;28;19998;-76
2021/05/09 06:20:31;;;;;;;;;;;16.40;99.90;;;;;;5095072;28;19916;-76
2021/05/09 06:22:57;;;;;;;;;;;16.40;99.90;;;;;;5094469;28;20377;-76
2021/05/09 06:25:23;;;;;;;;;;;16.40;99.90;;;;;;5094519;28;19989;-75
2021/05/09 06:27:48;;;;;;;;;;;16.50;99.90;;;;;;5094026;28;20028;-76
2021/05/09 06:30:14;;;;;;;;;;;16.60;99.90;;;;;;5094684;28;19916;-76
2021/05/09 06:32:39;;;;;;;;;;;16.60;99.90;;;;;;5094680;28;19970;-76
2021/05/09 06:35:05;;;;;;;;;;;16.60;99.90;;;;;;5094581;28;19908;-75
2021/05/09 06:37:32;;;;;;;;;;;16.60;99.90;;;;;;5093744;28;19915;-76
2021/05/09 06:39:58;;;;;;;;;;;16.60;99.90;;;;;;5094186;28;20280;-76
2021/05/09 06:42:23;;;;;;;;;;;16.70;99.90;;;;;;5093320;28;19915;-76
2021/05/09 06:44:57;;;;;;;;;;;16.80;99.90;;;;;;5094718;28;20376;-76
2021/05/09 06:47:23;;;;;;;;;;;16.80;99.90;;;;;;5093748;28;19914;-77
2021/05/09 06:49:48;;;;;;;;;;;16.90;99.90;;;;;;5094710;28;19999;-77
2021/05/09 06:52:15;;;;;;;;;;;17.00;99.90;;;;;;5093788;28;19965;-77
2021/05/09 06:54:40;;;;;;;;;;;17.20;99.90;;;;;;5092543;28;20349;-78
2021/05/09 06:57:06;;;;;;;;;;;17.30;99.90;;;;;;5089226;28;19912;-76
2021/05/09 06:59:31;;;;;;;;;;;17.30;99.90;;;;;;5094418;28;20412;-76
2021/05/09 07:01:57;;;;;;;;;;;17.20;99.90;;;;;;5094439;28;19915;-77
2021/05/09 07:04:22;;;;;;;;;;;17.30;99.90;;;;;;5093392;28;19911;-77
2021/05/09 07:06:48;;;;;;;;;;;17.60;99.90;;;;;;5093139;28;19969;-77
2021/05/09 07:09:13;;;;;;;;;;;17.80;99.90;;;;;;5092695;28;19916;-77
2021/05/09 07:11:39;;;;;;;;;;;17.90;99.90;;;;;;5094179;28;19908;-78
2021/05/09 07:14:05;;;;;;;;;;;18.00;99.90;;;;;;5093341;28;19919;-78
2021/05/09 07:16:31;;;;;;;;;;;18.20;99.90;;;;;;5093470;28;19904;-76
2021/05/09 07:18:57;;;;;;;;;;;18.50;99.90;;;;;;5092456;28;19951;-78
2021/05/09 07:21:28;;;;;;;;;;;18.70;99.90;;;;;;5091677;28;19954;-75
2021/05/09 07:23:53;;;;;;;;;;;18.80;99.90;;;;;;5094107;28;19999;-77
2021/05/09 07:26:19;;;;;;;;;;;18.80;99.90;;;;;;5092600;28;19947;-78
2021/05/09 07:28:45;;;;;;;;;;;18.90;99.90;;;;;;5093752;28;19919;-78
2021/05/09 07:31:11;;;;;;;;;;;18.90;99.90;;;;;;5094163;28;19939;-75
2021/05/09 07:33:37;;;;;;;;;;;19.10;99.90;;;;;;5078200;28;19913;-76
2021/05/09 07:36:03;;;;;;;;;;;19.40;99.90;;;;;;5088374;28;19908;-76
2021/05/09 07:38:28;;;;;;;;;;;19.50;99.90;;;;;;5092818;28;19908;-75
2021/05/09 07:40:54;;;;;;;;;;;19.80;99.90;;;;;;5092417;28;19912;-76
2021/05/09 07:43:20;;;;;;;;;;;20.00;99.90;;;;;;5092213;28;19907;-74
2021/05/09 07:45:46;;;;;;;;;;;20.20;99.90;;;;;;5090396;28;20250;-75
2021/05/09 07:48:11;;;;;;;;;;;20.50;99.90;;;;;;5091932;28;20410;-77
2021/05/09 07:50:37;;;;;;;;;;;20.60;99.90;;;;;;5092522;28;19963;-76
2021/05/09 07:53:03;;;;;;;;;;;20.80;99.90;;;;;;5091602;28;19911;-76
2021/05/09 07:55:29;;;;;;;;;;;21.00;99.90;;;;;;5093545;28;19908;-76
2021/05/09 07:57:54;;;;;;;;;;;21.00;99.90;;;;;;5091312;28;19912;-77
2021/05/09 08:00:20;;;;;;;;;;;20.80;99.90;;;;;;5108718;28;19907;-75
2021/05/09 08:02:48;;;;;;;;;;;20.80;99.90;;;;;;5093226;28;19914;-75
2021/05/09 08:05:14;;;;;;;;;;;20.70;99.90;;;;;;5093230;28;19908;-76
2021/05/09 08:07:53;;;;;;;;;;;20.60;99.90;;;;;;5092026;28;20276;-77
2021/05/09 08:10:19;;;;;;;;;;;20.50;99.90;;;;;;5085402;28;19954;-76
2021/05/09 08:12:44;;;;;;;;;;;20.40;99.90;;;;;;5091633;28;20265;-76
2021/05/09 08:15:10;;;;;;;;;;;20.40;99.90;;;;;;5092047;28;19953;-77
2021/05/09 08:17:35;;;;;;;;;;;20.50;99.90;;;;;;5092095;28;19946;-76
2021/05/09 08:20:01;;;;;;;;;;;20.60;99.90;;;;;;5091785;28;20057;-77
2021/05/09 08:22:27;;;;;;;;;;;20.70;99.90;;;;;;5091200;28;19912;-76
2021/05/09 08:24:52;;;;;;;;;;;20.70;99.90;;;;;;5091660;28;19908;-77
2021/05/09 08:27:18;;;;;;;;;;;20.80;99.90;;;;;;5091920;28;19930;-78
2021/05/09 08:29:43;;;;;;;;;;;21.10;99.90;;;;;;5092632;28;19908;-76
2021/05/09 08:32:09;;;;;;;;;;;21.50;99.90;;;;;;5091885;28;19930;-78
2021/05/09 08:34:36;;;;;;;;;;;21.50;99.90;;;;;;5096812;28;20284;-81
2021/05/09 08:37:01;;;;;;;;;;;21.50;99.90;;;;;;5092540;28;19907;-81
2021/05/09 08:39:27;;;;;;;;;;;21.50;99.90;;;;;;5099216;28;19912;-79
2021/05/09 08:41:52;;;;;;;;;;;21.20;99.90;;;;;;5108151;28;19896;-85
2021/05/09 08:44:18;;;;;;;;;;;21.00;99.90;;;;;;5110076;28;19919;-78
2021/05/09 08:46:45;;;;;;;;;;;20.80;99.90;;;;;;5111520;28;19943;-79
2021/05/09 08:49:11;;;;;;;;;;;20.80;99.90;;;;;;5109817;28;19908;-79
2021/05/09 08:51:37;;;;;;;;;;;20.80;99.90;;;;;;5113638;28;19900;-79
2021/05/09 08:54:03;;;;;;;;;;;20.80;99.90;;;;;;5111982;28;20403;-78
2021/05/09 08:56:28;;;;;;;;;;;20.90;99.90;;;;;;5111713;28;19908;-79
2021/05/09 08:58:54;;;;;;;;;;;21.00;99.90;;;;;;5112787;28;19934;-79
2021/05/09 09:01:19;;;;;;;;;;;21.00;99.90;;;;;;5113848;28;19895;-78
2021/05/09 09:03:45;;;;;;;;;;;21.00;99.90;;;;;;5114215;28;19907;-78
2021/05/09 09:06:16;;;;;;;;;;;21.40;99.90;;;;;;5115304;28;19957;-76
2021/05/09 09:08:51;;;;;;;;;;;21.90;99.90;;;;;;5118066;28;19908;-78
2021/05/09 09:11:24;;;;;;;;;;;22.40;99.90;;;;;;5118849;28;19916;-79
2021/05/09 09:14:05;;;;;;;;;;;23.00;99.90;;;;;;5107659;28;19919;-80
2021/05/09 09:16:31;;;;;;;;;;;23.30;99.90;;;;;;5105277;28;19963;-80
2021/05/09 09:19:05;;;;;;;;;;;23.70;99.90;;;;;;5099615;28;20003;-78
2021/05/09 09:21:31;;;;;;;;;;;23.80;99.90;;;;;;5091040;28;19922;-79
2021/05/09 09:23:57;;;;;;;;;;;23.70;99.90;;;;;;5101896;28;20350;-79
2021/05/09 09:26:26;;;;;;;;;;;23.70;99.90;;;;;;5102466;28;19971;-79
2021/05/09 09:28:51;;;;;;;;;;;23.60;99.90;;;;;;5102035;28;20006;-79
2021/05/09 09:31:33;;;;;;;;;;;23.70;99.90;;;;;;5104937;28;20268;-79
2021/05/09 09:33:59;;;;;;;;;;;24.40;99.90;;;;;;5102349;28;19919;-79
2021/05/09 09:36:24;;;;;;;;;;;25.00;99.90;;;;;;5097693;28;19913;-80
2021/05/09 09:38:50;;;;;;;;;;;25.30;99.80;;;;;;5096033;28;19912;-79
2021/05/09 09:41:16;;;;;;;;;;;25.20;99.90;;;;;;5098244;28;19908;-78
2021/05/09 09:43:45;;;;;;;;;;;25.10;99.90;;;;;;5096983;28;20313;-76
2021/05/09 09:46:30;;;;;;;;;;;25.00;99.90;;;;;;5085325;28;19908;-80
2021/05/09 09:48:56;;;;;;;;;;;25.20;99.90;;;;;;5097133;28;20418;-78
2021/05/09 09:51:22;;;;;;;;;;;25.40;99.90;;;;;;5088826;28;19919;-78
2021/05/09 09:53:48;;;;;;;;;;;25.50;99.60;;;;;;5095708;28;19920;-79
2021/05/09 09:56:17;;;;;;;;;;;25.70;99.00;;;;;;5097747;28;19912;-79
2021/05/09 09:58:43;;;;;;;;;;;25.70;99.10;;;;;;5110495;28;19912;-78
2021/05/09 10:01:09;;;;;;;;;;;25.80;99.80;;;;;;5098101;28;20352;-79
2021/05/09 10:03:34;;;;;;;;;;;26.10;99.50;;;;;;5093775;28;19954;-79
2021/05/09 10:06:00;;;;;;;;;;;26.40;99.80;;;;;;5097086;28;19912;-79
2021/05/09 10:08:26;;;;;;;;;;;26.70;98.20;;;;;;5094594;28;19919;-80
2021/05/09 10:10:52;;;;;;;;;;;26.70;97.80;;;;;;5096992;28;19912;-78
2021/05/09 10:13:22;;;;;;;;;;;26.50;98.80;;;;;;5076111;28;19974;-76
2021/05/09 10:15:48;;;;;;;;;;;26.50;98.80;;;;;;5093542;28;19969;-77
2021/05/09 10:18:14;;;;;;;;;;;26.90;98.10;;;;;;5089122;28;20299;-78
2021/05/09 10:20:40;;;;;;;;;;;26.90;98.10;;;;;;5096297;28;19916;-77
2021/05/09 10:23:06;;;;;;;;;;;26.50;98.60;;;;;;5090320;28;20255;-78
2021/05/09 10:25:41;;;;;;;;;;;26.40;98.60;;;;;;5095728;28;20363;-77
2021/05/09 10:28:11;;;;;;;;;;;26.60;98.20;;;;;;5091722;28;19908;-78
2021/05/09 10:30:56;;;;;;;;;;;26.70;98.10;;;;;;5094041;28;20322;-77
2021/05/09 10:33:37;;;;;;;;;;;26.50;98.70;;;;;;5092624;28;19912;-77
2021/05/09 10:36:07;;;;;;;;;;;26.30;99.20;;;;;;5082255;28;19962;-77
2021/05/09 10:38:51;;;;;;;;;;;26.30;99.10;;;;;;5091527;28;19912;-77
2021/05/09 10:41:16;;;;;;;;;;;26.10;99.00;;;;;;5099975;28;20004;-77
2021/05/09 10:43:42;;;;;;;;;;;25.80;99.40;;;;;;5089301;28;19998;-75
2021/05/09 10:46:08;;;;;;;;;;;25.40;99.40;;;;;;5094602;28;19908;-75
2021/05/09 10:48:34;;;;;;;;;;;24.90;99.60;;;;;;5087882;28;19908;-75
2021/05/09 10:51:03;;;;;;;;;;;24.60;99.90;;;;;;5093946;28;19999;-75
2021/05/09 10:53:35;;;;;;;;;;;24.30;99.90;;;;;;5090292;28;20261;-75
2021/05/09 10:56:04;;;;;;;;;;;24.00;99.90;;;;;;5092612;28;19908;-76
2021/05/09 10:58:39;;;;;;;;;;;23.70;99.90;;;;;;5090797;28;19907;-76
2021/05/09 11:01:08;;;;;;;;;;;23.70;99.90;;;;;;5090275;28;19908;-74
2021/05/09 11:03:37;;;;;;;;;;;23.80;99.90;;;;;;5088229;28;20262;-75
2021/05/09 11:06:09;;;;;;;;;;;23.70;99.90;;;;;;5092122;28;19943;-75
2021/05/09 11:08:45;;;;;;;;;;;23.60;99.90;;;;;;5090447;28;20005;-77
2021/05/09 11:11:13;;;;;;;;;;;23.50;99.90;;;;;;5089175;28;19994;-75
2021/05/09 11:14:00;;;;;;;;;;;23.40;99.90;;;;;;5104089;28;20007;-75
2021/05/09 11:16:26;;;;;;;;;;;23.20;99.90;;;;;;5079304;28;19915;-75
2021/05/09 11:18:58;;;;;;;;;;;22.90;99.90;;;;;;5090847;28;19915;-75
2021/05/09 11:21:24;;;;;;;;;;;22.70;99.90;;;;;;5085116;28;20277;-75
2021/05/09 11:23:51;;;;;;;;;;;22.60;99.90;;;;;;5088329;28;19908;-75
2021/05/09 11:26:29;;;;;;;;;;;22.60;99.90;;;;;;5092366;28;19996;-75
2021/05/09 11:29:14;;;;;;;;;;;22.80;99.90;;;;;;5090334;28;20612;-75
2021/05/09 11:31:43;;;;;;;;;;;23.20;99.90;;;;;;5086588;28;19919;-77
2021/05/09 11:34:09;;;;;;;;;;;23.40;99.90;;;;;;5089325;28;19955;-76
2021/05/09 11:36:35;;;;;;;;;;;23.60;99.90;;;;;;5078862;28;19919;-76
2021/05/09 11:39:04;;;;;;;;;;;23.70;99.90;;;;;;5089969;28;20260;-76
2021/05/09 11:41:29;;;;;;;;;;;23.80;99.90;;;;;;5089905;28;19955;-75
2021/05/09 11:44:04;;;;;;;;;;;23.90;99.90;;;;;;5085808;28;19954;-75
2021/05/09 11:46:33;;;;;;;;;;;24.00;99.90;;;;;;5081893;28;19930;-76
2021/05/09 11:49:15;;;;;;;;;;;24.10;99.90;;;;;;5085417;28;19923;-75
2021/05/09 11:51:50;;;;;;;;;;;24.00;99.90;;;;;;5090619;28;20348;-75
2021/05/09 11:54:16;;;;;;;;;;;23.60;99.90;;;;;;5089442;28;19955;-77
2021/05/09 11:57:01;;;;;;;;;;;23.30;99.90;;;;;;5092845;28;20288;-77
2021/05/09 11:59:37;;;;;;;;;;;23.00;99.90;;;;;;5089874;28;19916;-78
2021/05/09 12:02:04;;;;;;;;;;;22.70;99.90;;;;;;5091135;28;19908;-81
2021/05/09 12:04:30;;;;;;;;;;;22.30;99.90;;;;;;5077213;28;19915;-78
2021/05/09 12:07:00;;;;;;;;;;;22.00;99.90;;;;;;5089557;28;19955;-78
2021/05/09 12:09:26;;;;;;;;;;;21.60;99.90;;;;;;5092632;28;20010;-78
2021/05/09 12:11:52;;;;;;;;;;;21.40;99.90;;;;;;5090487;28;20352;-78
2021/05/09 12:14:17;;;;;;;;;;;21.30;99.90;;;;;;5092771;28;19910;-77
2021/05/09 12:16:43;;;;;;;;;;;21.60;99.90;;;;;;5092801;28;19904;-78
2021/05/09 12:19:09;;;;;;;;;;;21.90;99.90;;;;;;5091645;28;19912;-78
2021/05/09 12:21:35;;;;;;;;;;;22.30;99.90;;;;;;5092100;28;19923;-78
2021/05/09 12:24:01;;;;;;;;;;;22.50;99.90;;;;;;5093314;28;19994;-78
2021/05/09 12:26:27;;;;;;;;;;;22.70;99.90;;;;;;5092237;28;20370;-80
2021/05/09 12:28:54;;;;;;;;;;;22.90;99.90;;;;;;5093431;28;19995;-77
2021/05/09 12:31:19;;;;;;;;;;;23.20;99.90;;;;;;5092109;28;20355;-77
2021/05/09 12:33:47;;;;;;;;;;;23.30;99.90;;;;;;5092730;28;19918;-79
2021/05/09 12:36:16;;;;;;;;;;;23.30;99.90;;;;;;5089148;28;19908;-77
2021/05/09 12:38:42;;;;;;;;;;;23.30;99.90;;;;;;5092699;28;19961;-77
2021/05/09 12:41:15;;;;;;;;;;;23.40;99.90;;;;;;5096899;28;19908;-79
2021/05/09 12:43:40;;;;;;;;;;;23.50;99.90;;;;;;5095265;28;20404;-78
2021/05/09 12:46:06;;;;;;;;;;;23.70;99.90;;;;;;5093965;28;19994;-77
2021/05/09 12:48:31;;;;;;;;;;;23.60;99.90;;;;;;5092375;28;19915;-78
2021/05/09 12:51:04;;;;;;;;;;;23.70;99.90;;;;;;5097207;28;19908;-78
2021/05/09 12:53:43;;;;;;;;;;;23.60;99.90;;;;;;5093759;28;20280;-78
2021/05/09 12:56:28;;;;;;;;;;;23.60;99.90;;;;;;5095461;28;19908;-79
2021/05/09 12:59:00;;;;;;;;;;;23.70;99.90;;;;;;5092265;28;19951;-78
2021/05/09 13:01:26;;;;;;;;;;;23.80;99.90;;;;;;5084533;28;20626;-78
2021/05/09 13:03:52;;;;;;;;;;;24.00;99.90;;;;;;5089869;28;19908;-79
2021/05/09 13:06:17;;;;;;;;;;;24.20;99.90;;;;;;5092579;28;19908;-79
2021/05/09 13:08:43;;;;;;;;;;;24.30;99.90;;;;;;5089350;28;19911;-76
2021/05/09 13:11:09;;;;;;;;;;;24.50;99.90;;;;;;5082669;28;19908;-78
2021/05/09 13:13:34;;;;;;;;;;;24.60;99.90;;;;;;5108637;28;19924;-77
2021/05/09 13:15:59;;;;;;;;;;;24.80;99.90;;;;;;5092423;28;19939;-79
2021/05/09 13:18:25;;;;;;;;;;;24.80;99.90;;;;;;5088359;28;19995;-78
2021/05/09 13:20:50;;;;;;;;;;;25.00;99.90;;;;;;5088635;28;19924;-78
2021/05/09 13:23:16;;;;;;;;;;;25.10;99.90;;;;;;5091799;28;19969;-78
2021/05/09 13:25:43;;;;;;;;;;;25.30;99.90;;;;;;5096203;28;19961;-77
2021/05/09 13:28:09;;;;;;;;;;;25.50;99.90;;;;;;5091526;28;19908;-79
2021/05/09 13:30:35;;;;;;;;;;;25.70;99.90;;;;;;5095752;28;19907;-78
2021/05/09 13:33:01;;;;;;;;;;;25.70;99.90;;;;;;5089351;28;20358;-78
2021/05/09 13:35:26;;;;;;;;;;;25.70;99.90;;;;;;5090692;28;19999;-79
2021/05/09 13:37:53;;;;;;;;;;;25.70;99.90;;;;;;5087579;28;19961;-80
2021/05/09 13:40:19;;;;;;;;;;;25.80;99.90;;;;;;5087819;28;20003;-75
2021/05/09 13:42:44;;;;;;;;;;;25.90;99.90;;;;;;5086829;28;20006;-78
2021/05/09 13:45:11;;;;;;;;;;;25.80;99.90;;;;;;5092337;28;20390;-78
2021/05/09 13:47:36;;;;;;;;;;;25.80;99.90;;;;;;5092558;28;19908;-78
2021/05/09 13:50:02;;;;;;;;;;;25.90;99.90;;;;;;5096599;28;20310;-81
2021/05/09 13:52:28;;;;;;;;;;;26.00;99.90;;;;;;5092844;28;19912;-78
2021/05/09 13:54:53;;;;;;;;;;;26.00;99.90;;;;;;5093611;28;19918;-78
2021/05/09 13:57:19;;;;;;;;;;;26.10;99.90;;;;;;5093892;28;19908;-77
2021/05/09 13:59:44;;;;;;;;;;;26.30;99.90;;;;;;5091890;28;20315;-77
2021/05/09 14:02:10;;;;;;;;;;;26.50;99.90;;;;;;5094859;28;19947;-77
2021/05/09 14:04:35;;;;;;;;;;;26.60;99.90;;;;;;5093005;28;19908;-78
2021/05/09 14:07:01;;;;;;;;;;;26.50;99.90;;;;;;5094350;28;19912;-78
2021/05/09 14:09:26;;;;;;;;;;;26.40;99.90;;;;;;5087145;28;20300;-78
2021/05/09 14:11:59;;;;;;;;;;;26.30;99.90;;;;;;5092464;28;20011;-77
2021/05/09 14:14:26;;;;;;;;;;;26.40;99.90;;;;;;5095176;28;20003;-77